Airfield :
LOGIN :

Register | Disclaimer

   EN    FR    IT 

 










Legend :    VFR   Marginal VFR   IFR   Intensive IFR   Very Intensive IFR
Visi :
Ceiling :
>= 8 km
>= 3000ft
5 to 8 km
1000 to 3000 ft
1500m to 5 km
500 to 1000 ft
800 to 1500m
200 to 500 ft
< 800m
< 200 ft
Symbols :   Thunderstorms  Fog  Heavy snow  Heavy precipitations  Wind > 20 kt
SIGMETs :     Misc.  Thunderstorms  Icing  Turbulence  Mountain Waves  Volcanic Ashes






- Airport Elevation : 291 ft
- IATA code : ORY


LFPO - Paris-Orly

CURRENT METAR :
  • 030900Z VRB04KT 9999 FEW033 21/12 Q1021 NOSIG

EXPIRED METARs :
  • 030830Z 33004KT 260V060 9999 FEW028 20/12 Q1021 NOSIG
  • 030800Z VRB03KT 9999 FEW028 19/12 Q1021 NOSIG
  • 030730Z 01006KT 330V060 9999 FEW026 19/12 Q1021 NOSIG
  • 030700Z 35008KT 310V030 9999 FEW026 18/12 Q1021 NOSIG
  • 030630Z 36006KT CAVOK 18/12 Q1020 NOSIG

TAF TAF LFPO
Valid from the 03 at 06:00 until the 04 at 12:00 UTC


030500Z 0306/0412 34005KT CAVOK
TEMPO 0311/0314 28012KT
ATIS : +33 1 49 75 65 80



MET'MAP, your aeronautical weather chart ! - Copyright ORBIFLY December 2007 - Disclaimer

ORBIFLY MET'MAP TEAM :

Programming & Development : Alexandra Zaïnal
Original concept : Baudouin d'Aumeries
Technical & hardware support : Manuel Goepfert
Assistance : Marc-Olivier Méhu




SOURCES & CREDITS :

   NOAA